createdAt,value
2019-02-09T00:00:49.206Z,100431.08
2019-02-09T00:02:50.597Z,100425.94
2019-02-09T00:04:51.979Z,100424.90
2019-02-09T00:06:53.339Z,100427.89
2019-02-09T00:08:55.037Z,100407.67
2019-02-09T00:10:56.459Z,100411.59
2019-02-09T00:12:57.885Z,100403.95
2019-02-09T00:14:59.392Z,100399.31
2019-02-09T00:17:00.767Z,100393.06
2019-02-09T00:19:03.709Z,100390.30
2019-02-09T00:21:05.521Z,100396.06
2019-02-09T00:23:07.479Z,100379.44
2019-02-09T00:25:20.774Z,100371.73
2019-02-09T00:27:22.137Z,100372.90
2019-02-09T00:29:23.508Z,100376.84
2019-02-09T00:31:24.913Z,100377.50
2019-02-09T00:33:26.271Z,100380.17
2019-02-09T00:35:27.708Z,100373.38
2019-02-09T00:37:29.082Z,100373.11
2019-02-09T00:39:30.448Z,100362.85
2019-02-09T00:41:31.809Z,100370.01
2019-02-09T00:43:33.201Z,100370.41
2019-02-09T00:45:34.559Z,100359.77
2019-02-09T00:47:35.930Z,100372.84
2019-02-09T00:49:37.323Z,100371.68
2019-02-09T00:51:38.740Z,100366.77
2019-02-09T00:53:40.163Z,100367.25
2019-02-09T00:55:41.528Z,100355.37
2019-02-09T00:57:43.295Z,100347.06
2019-02-09T00:59:44.698Z,100361.27
2019-02-09T01:01:46.069Z,100351.00
2019-02-09T01:03:47.435Z,100348.70
2019-02-09T01:05:48.933Z,100344.66
2019-02-09T01:07:50.454Z,100341.95
2019-02-09T01:09:51.770Z,100342.52
2019-02-09T01:11:53.288Z,100336.85
2019-02-09T01:13:54.722Z,100331.24
2019-02-09T01:15:56.065Z,100329.55
2019-02-09T01:17:57.416Z,100330.27
2019-02-09T01:19:58.828Z,100325.51
2019-02-09T01:22:00.264Z,100318.42
2019-02-09T01:24:01.846Z,100317.12
2019-02-09T01:26:03.501Z,100317.05
2019-02-09T01:28:05.256Z,100308.73
2019-02-09T01:30:13.811Z,100307.98
2019-02-09T01:32:15.233Z,100304.14
2019-02-09T01:34:16.616Z,100295.48
2019-02-09T01:36:18.080Z,100293.69
2019-02-09T01:38:19.472Z,100285.47
2019-02-09T01:40:28.280Z,100296.56
2019-02-09T01:42:29.652Z,100294.84
2019-02-09T01:44:31.246Z,100293.82
2019-02-09T01:46:32.618Z,100295.12
2019-02-09T01:48:34.181Z,100282.31
2019-02-09T01:50:35.676Z,100280.16
2019-02-09T01:52:37.171Z,100272.80
2019-02-09T01:54:38.548Z,100262.20
2019-02-09T01:56:39.936Z,100263.39
2019-02-09T01:58:41.261Z,100250.08
2019-02-09T02:00:42.663Z,100259.73
2019-02-09T02:02:44.366Z,100252.77
2019-02-09T02:04:45.729Z,100245.31
2019-02-09T02:06:47.129Z,100229.09
2019-02-09T02:08:48.529Z,100214.91
2019-02-09T02:10:50.088Z,100207.50
2019-02-09T02:12:51.567Z,100202.95
2019-02-09T02:14:53.069Z,100202.47
2019-02-09T02:16:54.437Z,100196.41
2019-02-09T02:18:55.809Z,100201.73
2019-02-09T02:20:57.212Z,100187.73
2019-02-09T02:22:58.581Z,100181.73
2019-02-09T02:25:00.149Z,100186.15
2019-02-09T02:27:01.649Z,100180.54
2019-02-09T02:29:03.649Z,100169.98
2019-02-09T02:31:05.102Z,100165.44
2019-02-09T02:33:06.993Z,100165.58
2019-02-09T02:35:09.545Z,100164.94
2019-02-09T02:37:10.913Z,100159.20
2019-02-09T02:39:12.296Z,100155.67
2019-02-09T02:41:13.657Z,100149.97
2019-02-09T02:43:15.007Z,100146.89
2019-02-09T02:45:21.776Z,100154.31
2019-02-09T02:47:23.137Z,100146.88
2019-02-09T02:49:24.508Z,100145.22
2019-02-09T02:51:25.865Z,100136.20
2019-02-09T02:53:27.269Z,100133.20
2019-02-09T02:55:32.389Z,100124.73
2019-02-09T02:57:33.739Z,100122.06
2019-02-09T02:59:35.110Z,100112.66
2019-02-09T03:01:36.535Z,100107.50
2019-02-09T03:03:37.902Z,100111.36
2019-02-09T03:05:39.288Z,100103.98
2019-02-09T03:07:40.790Z,100099.58
2019-02-09T03:09:42.127Z,100079.74
2019-02-09T03:11:43.518Z,100073.80
2019-02-09T03:13:44.923Z,100072.58
2019-02-09T03:15:46.411Z,100071.63
2019-02-09T03:17:47.879Z,100075.62
2019-02-09T03:19:49.264Z,100070.89
2019-02-09T03:21:50.625Z,100072.44
2019-02-09T03:23:51.985Z,100071.34
2019-02-09T03:25:53.405Z,100066.50
2019-02-09T03:27:54.971Z,100063.94
2019-02-09T03:29:56.302Z,100070.05
2019-02-09T03:31:57.681Z,100058.08
2019-02-09T03:33:59.007Z,100068.11
2019-02-09T03:36:00.404Z,100042.33
2019-02-09T03:38:01.773Z,100033.84
2019-02-09T03:40:13.379Z,100030.98
2019-02-09T03:42:14.760Z,100030.94
2019-02-09T03:44:16.105Z,100015.31
2019-02-09T03:46:17.455Z,100023.03
2019-02-09T03:48:18.835Z,100012.03
2019-02-09T03:50:26.802Z,100009.31
2019-02-09T03:52:28.141Z,100014.42
2019-02-09T03:54:29.537Z,100002.30
2019-02-09T03:56:31.109Z,100002.24
2019-02-09T03:58:32.453Z,100004.16
2019-02-09T04:00:33.910Z,100014.27
2019-02-09T04:02:35.309Z,99999.09
2019-02-09T04:04:36.682Z,99993.81
2019-02-09T04:06:38.030Z,100003.85
2019-02-09T04:08:39.418Z,99993.03
2019-02-09T04:10:40.757Z,99992.53
2019-02-09T04:12:42.110Z,99990.77
2019-02-09T04:14:43.485Z,99996.86
2019-02-09T04:16:44.947Z,99988.31
2019-02-09T04:18:46.341Z,99987.88
2019-02-09T04:20:47.707Z,99989.80
2019-02-09T04:22:49.264Z,99984.39
2019-02-09T04:24:50.640Z,99981.75
2019-02-09T04:26:52.008Z,99983.47
2019-02-09T04:28:53.357Z,99987.30
2019-02-09T04:30:54.694Z,99985.31
2019-02-09T04:32:56.172Z,99993.12
2019-02-09T04:34:57.526Z,99958.70
2019-02-09T04:36:58.881Z,99958.50
2019-02-09T04:39:00.308Z,99959.12
2019-02-09T04:41:01.665Z,99948.20
2019-02-09T04:43:03.153Z,99951.36
2019-02-09T04:45:09.602Z,99953.53
2019-02-09T04:47:10.940Z,99947.06
2019-02-09T04:49:12.305Z,99961.58
2019-02-09T04:51:13.676Z,99945.61
2019-02-09T04:53:15.056Z,99937.56
2019-02-09T04:55:21.880Z,99939.06
2019-02-09T04:57:23.257Z,99932.84
2019-02-09T04:59:24.995Z,99937.91
2019-02-09T05:01:26.372Z,99923.31
2019-02-09T05:03:27.718Z,99931.59
2019-02-09T05:05:30.012Z,99934.11
2019-02-09T05:07:31.341Z,99933.03
2019-02-09T05:09:32.897Z,99928.55
2019-02-09T05:11:34.344Z,99928.56
2019-02-09T05:13:35.671Z,99933.73
2019-02-09T05:15:37.033Z,99938.27
2019-02-09T05:17:38.465Z,99938.27
2019-02-09T05:19:39.825Z,99939.89
2019-02-09T05:21:41.184Z,99941.59
2019-02-09T05:23:42.549Z,99951.23
2019-02-09T05:25:43.915Z,99948.21
2019-02-09T05:27:45.875Z,99949.30
2019-02-09T05:29:47.258Z,99946.13
2019-02-09T05:31:48.595Z,99943.96
2019-02-09T05:33:49.937Z,99942.73
2019-02-09T05:35:51.311Z,99933.02
2019-02-09T05:37:52.663Z,99941.81
2019-02-09T05:39:53.988Z,99940.53
2019-02-09T05:41:55.448Z,99941.26
2019-02-09T05:43:56.810Z,99943.23
2019-02-09T05:45:58.156Z,99945.91
2019-02-09T05:47:59.534Z,99942.77
2019-02-09T05:50:00.879Z,99949.72
2019-02-09T05:52:02.228Z,99937.91
2019-02-09T05:54:03.603Z,99935.06
2019-02-09T05:56:05.050Z,99937.70
2019-02-09T05:58:06.386Z,99932.99
2019-02-09T06:00:34.359Z,99934.58
2019-02-09T06:02:35.742Z,99942.98
2019-02-09T06:04:37.083Z,99944.19
2019-02-09T06:06:38.468Z,99943.36
2019-02-09T06:08:39.823Z,99937.23
2019-02-09T06:10:41.210Z,99928.20
2019-02-09T06:12:42.527Z,99933.37
2019-02-09T06:14:43.905Z,99932.27
2019-02-09T06:16:45.275Z,99934.58
2019-02-09T06:18:46.622Z,99930.97
2019-02-09T06:20:48.282Z,99924.56
2019-02-09T06:22:49.635Z,99927.33
2019-02-09T06:24:51.023Z,99929.55
2019-02-09T06:26:52.724Z,99934.05
2019-02-09T06:28:54.078Z,99943.90
2019-02-09T06:30:55.423Z,99942.47
2019-02-09T06:32:57.001Z,99947.23
2019-02-09T06:34:58.357Z,99957.20
2019-02-09T06:36:59.701Z,99953.89
2019-02-09T06:39:01.070Z,99956.47
2019-02-09T06:41:02.830Z,99958.48
2019-02-09T06:43:04.247Z,99955.77
2019-02-09T06:45:10.984Z,99960.80
2019-02-09T06:47:12.359Z,99945.77
2019-02-09T06:49:13.740Z,99936.65
2019-02-09T06:51:15.116Z,99943.18
2019-02-09T06:53:16.454Z,99937.81
2019-02-09T06:55:17.794Z,99945.83
2019-02-09T06:57:20.018Z,99961.15
2019-02-09T06:59:21.813Z,99978.72
2019-02-09T07:01:23.172Z,99969.94
2019-02-09T07:03:24.760Z,99973.54
2019-02-09T07:05:26.099Z,99976.92
2019-02-09T07:07:27.438Z,99980.69
2019-02-09T07:09:28.864Z,99968.67
2019-02-09T07:11:30.211Z,99975.53
2019-02-09T07:13:31.618Z,99969.91
2019-02-09T07:15:35.296Z,99983.78
2019-02-09T07:17:36.638Z,99974.48
2019-02-09T07:19:38.027Z,99987.16
2019-02-09T07:21:39.710Z,99990.59
2019-02-09T07:23:41.042Z,99991.97
2019-02-09T07:25:42.380Z,99992.22
2019-02-09T07:27:43.750Z,99994.44
2019-02-09T07:29:45.108Z,99992.25
2019-02-09T07:31:46.476Z,99986.56
2019-02-09T07:33:47.801Z,99984.99
2019-02-09T07:35:49.143Z,99994.98
2019-02-09T07:37:50.731Z,99998.08
2019-02-09T07:39:52.079Z,99991.88
2019-02-09T07:41:53.506Z,100000.97
2019-02-09T07:43:54.876Z,99997.16
2019-02-09T07:45:56.245Z,99997.53
2019-02-09T07:47:57.688Z,100000.30
2019-02-09T07:49:59.052Z,99996.38
2019-02-09T07:52:00.653Z,99999.19
2019-02-09T07:54:01.991Z,99996.04
2019-02-09T07:56:03.673Z,99997.58
2019-02-09T07:58:05.050Z,100001.87
2019-02-09T08:00:27.806Z,100001.66
2019-02-09T08:02:29.150Z,100010.83
2019-02-09T08:04:30.541Z,100002.23
2019-02-09T08:06:31.893Z,100025.80
2019-02-09T08:08:33.258Z,100014.19
2019-02-09T08:10:36.768Z,100017.98
2019-02-09T08:12:38.127Z,100015.83
2019-02-09T08:14:39.480Z,100029.42
2019-02-09T08:16:41.064Z,100014.62
2019-02-09T08:18:42.412Z,100018.20
2019-02-09T08:20:43.955Z,100014.05
2019-02-09T08:22:46.045Z,100017.61
2019-02-09T08:24:47.438Z,100014.62
2019-02-09T08:26:48.844Z,100015.71
2019-02-09T08:28:50.260Z,100003.50
2019-02-09T08:30:51.659Z,100019.05
2019-02-09T08:32:53.417Z,100013.37
2019-02-09T08:34:54.756Z,100014.58
2019-02-09T08:36:56.178Z,100008.70
2019-02-09T08:38:57.482Z,100005.22
2019-02-09T08:40:58.898Z,100008.28
2019-02-09T08:43:00.347Z,100017.42
2019-02-09T08:45:01.865Z,100008.41
2019-02-09T08:47:03.308Z,100019.19
2019-02-09T08:49:04.758Z,100040.19
2019-02-09T08:51:08.115Z,100034.04
2019-02-09T08:53:09.532Z,100024.36
2019-02-09T08:55:12.213Z,100029.12
2019-02-09T08:57:13.676Z,100027.76
2019-02-09T08:59:15.200Z,100024.14
2019-02-09T09:01:17.714Z,100029.41
2019-02-09T09:03:19.052Z,100022.42
2019-02-09T09:05:20.499Z,100020.45
2019-02-09T09:07:22.217Z,100034.56
2019-02-09T09:09:23.575Z,100029.15
2019-02-09T09:11:24.913Z,100033.80
2019-02-09T09:13:26.316Z,100029.17
2019-02-09T09:15:37.928Z,100029.55
2019-02-09T09:17:39.276Z,100029.56
2019-02-09T09:19:40.653Z,100036.51
2019-02-09T09:21:42.035Z,100041.71
2019-02-09T09:23:43.449Z,100063.05
2019-02-09T09:25:45.010Z,100048.78
2019-02-09T09:27:46.355Z,100057.77
2019-02-09T09:29:47.788Z,100063.23
2019-02-09T09:31:49.205Z,100053.45
2019-02-09T09:33:50.535Z,100053.39
2019-02-09T09:35:51.981Z,100080.86
2019-02-09T09:37:54.583Z,100053.70
2019-02-09T09:39:55.946Z,100044.91
2019-02-09T09:41:57.409Z,100043.45
2019-02-09T09:43:58.974Z,100058.47
2019-02-09T09:46:00.624Z,100048.00
2019-02-09T09:48:03.378Z,100060.28
2019-02-09T09:50:09.918Z,100054.03
2019-02-09T09:52:11.249Z,100059.66
2019-02-09T09:54:12.593Z,100046.86
2019-02-09T09:56:14.380Z,100063.11
2019-02-09T09:58:15.980Z,100066.02
2019-02-09T10:00:26.234Z,100062.88
2019-02-09T10:02:27.653Z,100071.72
2019-02-09T10:04:29.041Z,100074.89
2019-02-09T10:06:30.400Z,100065.64
2019-02-09T10:08:31.827Z,100071.98
2019-02-09T10:10:33.378Z,100073.19
2019-02-09T10:12:34.802Z,100071.16
2019-02-09T10:14:36.251Z,100070.77
2019-02-09T10:16:37.594Z,100075.19
2019-02-09T10:18:39.110Z,100068.98
2019-02-09T10:20:40.454Z,100065.31
2019-02-09T10:22:41.864Z,100059.25
2019-02-09T10:24:43.203Z,100081.34
2019-02-09T10:26:44.987Z,100107.12
2019-02-09T10:28:46.344Z,100069.22
2019-02-09T10:30:47.910Z,100080.84
2019-02-09T10:32:49.487Z,100082.48
2019-02-09T10:34:50.885Z,100074.27
2019-02-09T10:36:52.273Z,100076.63
2019-02-09T10:38:53.618Z,100077.73
2019-02-09T10:40:55.073Z,100076.50
2019-02-09T10:42:56.731Z,100085.50
2019-02-09T10:44:58.733Z,100082.52
2019-02-09T10:47:00.106Z,100070.39
2019-02-09T10:49:01.484Z,100101.87
2019-02-09T10:51:03.200Z,100098.37
2019-02-09T10:53:05.029Z,100079.26
2019-02-09T10:55:08.817Z,100072.95
2019-02-09T10:57:10.196Z,100070.05
2019-02-09T10:59:11.538Z,100083.97
2019-02-09T11:01:13.078Z,100090.71
2019-02-09T11:03:14.685Z,100074.80
2019-02-09T11:05:16.660Z,100067.35
2019-02-09T11:07:18.018Z,100076.06
2019-02-09T11:09:20.021Z,100085.56
2019-02-09T11:11:21.359Z,100069.38
2019-02-09T11:13:22.858Z,100083.84
2019-02-09T11:15:24.222Z,100084.44
2019-02-09T11:17:25.576Z,100094.58
2019-02-09T11:19:27.165Z,100081.63
2019-02-09T11:21:28.512Z,100097.26
2019-02-09T11:23:29.850Z,100086.58
2019-02-09T11:25:31.443Z,100100.27
2019-02-09T11:27:32.805Z,100088.95
2019-02-09T11:29:34.162Z,100090.92
2019-02-09T11:31:35.595Z,100087.83
2019-02-09T11:33:36.953Z,100097.97
2019-02-09T11:35:38.303Z,100105.78
2019-02-09T11:37:39.897Z,100095.78
2019-02-09T11:39:41.252Z,100095.61
2019-02-09T11:41:42.626Z,100097.67
2019-02-09T11:43:44.021Z,100098.74
2019-02-09T11:45:45.377Z,100097.40
2019-02-09T11:47:46.766Z,100137.31
2019-02-09T11:49:48.197Z,100102.98
2019-02-09T11:51:50.221Z,100104.92
2019-02-09T11:53:51.994Z,100111.28
2019-02-09T11:55:53.462Z,100089.27
2019-02-09T11:57:54.874Z,100092.66
2019-02-09T11:59:56.231Z,100085.17
2019-02-09T12:01:57.574Z,100089.64
2019-02-09T12:03:58.997Z,100097.90
2019-02-09T12:06:00.599Z,100116.98
2019-02-09T12:08:04.053Z,100090.18
2019-02-09T12:10:18.618Z,100104.27
2019-02-09T12:12:20.165Z,100090.78
2019-02-09T12:14:21.511Z,100091.05
2019-02-09T12:16:23.411Z,100090.57
2019-02-09T12:18:24.802Z,100098.23
2019-02-09T12:20:26.469Z,100102.39
2019-02-09T12:22:27.818Z,100100.16
2019-02-09T12:24:29.214Z,100096.59
2019-02-09T12:26:30.565Z,100099.73
2019-02-09T12:28:32.018Z,100114.14
2019-02-09T12:30:36.595Z,100117.98
2019-02-09T12:32:37.950Z,100114.49
2019-02-09T12:34:39.292Z,100118.61
2019-02-09T12:36:40.696Z,100107.94
2019-02-09T12:38:42.035Z,100116.16
2019-02-09T12:40:43.433Z,100111.36
2019-02-09T12:42:44.780Z,100131.29
2019-02-09T12:44:46.176Z,100131.89
2019-02-09T12:46:47.524Z,100132.97
2019-02-09T12:48:48.874Z,100117.30
2019-02-09T12:50:50.608Z,100116.97
2019-02-09T12:52:52.366Z,100106.11
2019-02-09T12:54:53.724Z,100099.27
2019-02-09T12:56:55.116Z,100100.89
2019-02-09T12:58:56.471Z,100104.06
2019-02-09T13:00:57.808Z,100097.28
2019-02-09T13:03:03.527Z,100096.39
2019-02-09T13:05:06.975Z,100096.88
2019-02-09T13:07:08.344Z,100125.85
2019-02-09T13:09:09.769Z,100105.68
2019-02-09T13:11:11.109Z,100099.03
2019-02-09T13:13:12.460Z,100108.18
2019-02-09T13:15:32.811Z,100102.92
2019-02-09T13:17:34.227Z,100114.88
2019-02-09T13:19:35.565Z,100109.21
2019-02-09T13:21:36.984Z,100120.88
2019-02-09T13:23:38.377Z,100119.02
2019-02-09T13:25:39.812Z,100119.08
2019-02-09T13:27:43.506Z,100122.59
2019-02-09T13:29:44.976Z,100121.73
2019-02-09T13:31:46.378Z,100125.44
2019-02-09T13:33:47.842Z,100118.98
2019-02-09T13:35:49.387Z,100120.34
2019-02-09T13:37:50.742Z,100120.55
2019-02-09T13:39:52.178Z,100122.89
2019-02-09T13:41:53.589Z,100117.65
2019-02-09T13:43:54.974Z,100130.29
2019-02-09T13:45:57.330Z,100126.82
2019-02-09T13:47:58.899Z,100111.66
2019-02-09T13:50:00.244Z,100116.27
2019-02-09T13:52:01.578Z,100117.64
2019-02-09T13:54:03.477Z,100115.89
2019-02-09T13:56:04.834Z,100127.31
2019-02-09T13:58:06.383Z,100122.84
2019-02-09T14:00:23.611Z,100130.55
2019-02-09T14:02:24.963Z,100144.16
2019-02-09T14:04:26.375Z,100149.08
2019-02-09T14:06:27.738Z,100144.20
2019-02-09T14:08:29.072Z,100134.78
2019-02-09T14:10:30.477Z,100143.86
2019-02-09T14:12:31.840Z,100138.50
2019-02-09T14:14:33.209Z,100139.41
2019-02-09T14:16:38.763Z,100141.05
2019-02-09T14:18:37.868Z,100138.20
2019-02-09T14:20:39.224Z,100141.61
2019-02-09T14:22:40.876Z,100155.82
2019-02-09T14:24:42.208Z,100175.19
2019-02-09T14:26:43.561Z,100146.64
2019-02-09T14:28:44.958Z,100168.02
2019-02-09T14:30:46.302Z,100162.16
2019-02-09T14:32:47.998Z,100150.52
2019-02-09T14:34:49.800Z,100149.55
2019-02-09T14:36:51.157Z,100160.23
2019-02-09T14:38:52.509Z,100174.71
2019-02-09T14:40:54.046Z,100173.52
2019-02-09T14:42:55.605Z,100174.10
2019-02-09T14:44:56.943Z,100171.63
2019-02-09T14:46:58.426Z,100176.30
2019-02-09T14:48:59.836Z,100183.56
2019-02-09T14:51:01.209Z,100180.92
2019-02-09T14:53:03.594Z,100172.50
2019-02-09T14:55:10.730Z,100175.74
2019-02-09T14:57:12.079Z,100178.59
2019-02-09T14:59:13.432Z,100185.72
2019-02-09T15:01:14.825Z,100204.92
2019-02-09T15:03:16.404Z,100182.81
2019-02-09T15:05:17.963Z,100181.59
2019-02-09T15:07:19.372Z,100177.15
2019-02-09T15:09:20.718Z,100188.56
2019-02-09T15:11:22.078Z,100187.12
2019-02-09T15:13:23.472Z,100178.39
2019-02-09T15:15:39.256Z,100183.45
2019-02-09T15:17:40.625Z,100184.13
2019-02-09T15:19:42.006Z,100173.83
2019-02-09T15:21:43.367Z,100179.43
2019-02-09T15:23:44.849Z,100181.22
2019-02-09T15:25:46.305Z,100176.70
2019-02-09T15:27:47.638Z,100188.23
2019-02-09T15:29:49.043Z,100193.23
2019-02-09T15:31:50.377Z,100200.64
2019-02-09T15:33:51.717Z,100184.67
2019-02-09T15:35:53.105Z,100191.61
2019-02-09T15:37:54.467Z,100184.94
2019-02-09T15:39:55.806Z,100180.52
2019-02-09T15:41:57.193Z,100188.00
2019-02-09T15:43:58.623Z,100183.15
2019-02-09T15:45:59.976Z,100185.03
2019-02-09T15:48:01.308Z,100177.75
2019-02-09T15:50:08.130Z,100185.48
2019-02-09T15:52:29.445Z,100189.28
2019-02-09T15:54:50.683Z,100148.82
2019-02-09T15:57:11.997Z,100181.91
2019-02-09T15:59:33.276Z,100182.92
2019-02-09T16:01:53.193Z,100179.55
2019-02-09T16:04:09.475Z,100182.38
2019-02-09T16:06:10.972Z,100195.55
2019-02-09T16:08:12.335Z,100189.97
2019-02-09T16:10:17.694Z,100188.53
2019-02-09T16:12:19.092Z,100209.00
2019-02-09T16:14:20.440Z,100193.96
2019-02-09T16:16:21.803Z,100200.49
2019-02-09T16:18:23.230Z,100213.93
2019-02-09T16:20:31.441Z,100225.55
2019-02-09T16:22:32.777Z,100210.97
2019-02-09T16:24:34.233Z,100208.34
2019-02-09T16:26:35.564Z,100206.06
2019-02-09T16:28:37.102Z,100204.22
2019-02-09T16:30:38.554Z,100195.35
2019-02-09T16:32:41.270Z,100205.71
2019-02-09T16:34:42.917Z,100200.27
2019-02-09T16:36:44.341Z,100199.25
2019-02-09T16:38:45.711Z,100196.16
2019-02-09T16:40:47.026Z,100204.77
2019-02-09T16:42:49.173Z,100197.36
2019-02-09T16:44:50.527Z,100196.49
2019-02-09T16:46:51.869Z,100195.61
2019-02-09T16:48:53.596Z,100210.57
2019-02-09T16:50:54.928Z,100208.55
2019-02-09T16:52:56.289Z,100210.54
2019-02-09T16:54:57.696Z,100207.41
2019-02-09T16:57:00.098Z,100216.83
2019-02-09T16:59:01.466Z,100214.53
2019-02-09T17:01:03.416Z,100208.25
2019-02-09T17:03:07.526Z,100226.32
2019-02-09T17:05:09.060Z,100219.70
2019-02-09T17:07:10.418Z,100212.14
2019-02-09T17:09:12.395Z,100216.84
2019-02-09T17:11:13.736Z,100215.69
2019-02-09T17:13:15.242Z,100215.53
2019-02-09T17:15:25.085Z,100225.52
2019-02-09T17:17:26.588Z,100226.23
2019-02-09T17:19:27.934Z,100227.53
2019-02-09T17:21:29.353Z,100222.11
2019-02-09T17:23:30.697Z,100223.42
2019-02-09T17:25:32.111Z,100220.63
2019-02-09T17:27:33.503Z,100213.62
2019-02-09T17:29:34.844Z,100215.07
2019-02-09T17:31:36.243Z,100237.05
2019-02-09T17:33:37.602Z,100232.50
2019-02-09T17:35:38.938Z,100242.78
2019-02-09T17:37:40.373Z,100240.30
2019-02-09T17:39:41.705Z,100232.66
2019-02-09T17:41:43.053Z,100243.80
2019-02-09T17:43:44.471Z,100287.73
2019-02-09T17:45:50.806Z,100310.30
2019-02-09T17:47:52.135Z,100353.33
2019-02-09T17:49:53.549Z,100353.64
2019-02-09T17:51:54.931Z,100339.13
2019-02-09T17:53:57.388Z,100339.95
2019-02-09T17:55:58.810Z,100344.61
2019-02-09T17:58:00.118Z,100342.16
2019-02-09T18:00:05.667Z,100336.06
2019-02-09T18:02:07.175Z,100331.59
2019-02-09T18:04:08.520Z,100342.37
2019-02-09T18:06:09.956Z,100332.92
2019-02-09T18:08:11.949Z,100333.16
2019-02-09T18:10:17.377Z,100339.73
2019-02-09T18:12:18.732Z,100337.96
2019-02-09T18:14:20.196Z,100338.66
2019-02-09T18:16:21.750Z,100334.41
2019-02-09T18:18:23.096Z,100332.55
2019-02-09T18:20:24.529Z,100334.40
2019-02-09T18:22:25.912Z,100327.29
2019-02-09T18:24:27.263Z,100319.42
2019-02-09T18:26:28.622Z,100323.91
2019-02-09T18:28:30.135Z,100325.07
2019-02-09T18:30:32.374Z,100323.97
2019-02-09T18:32:33.721Z,100316.25
2019-02-09T18:34:35.100Z,100321.47
2019-02-09T18:36:36.440Z,100316.18
2019-02-09T18:38:37.795Z,100321.72
2019-02-09T18:40:39.213Z,100332.41
2019-02-09T18:42:40.553Z,100329.30
2019-02-09T18:44:41.904Z,100322.70
2019-02-09T18:46:43.293Z,100319.84
2019-02-09T18:48:44.640Z,100320.56
2019-02-09T18:50:46.000Z,100314.83
2019-02-09T18:52:47.664Z,100321.57
2019-02-09T18:54:49.428Z,100319.54
2019-02-09T18:56:50.766Z,100319.52
2019-02-09T18:58:52.192Z,100329.98
2019-02-09T19:00:53.585Z,100331.34
2019-02-09T19:02:54.928Z,100328.03
2019-02-09T19:05:03.968Z,100338.98
2019-02-09T19:06:59.578Z,100341.31
2019-02-09T19:09:01.012Z,100341.06
2019-02-09T19:11:02.954Z,100341.91
2019-02-09T19:13:04.958Z,100333.77
2019-02-09T19:15:11.154Z,100339.76
2019-02-09T19:17:12.508Z,100342.23
2019-02-09T19:19:13.898Z,100349.40
2019-02-09T19:21:15.313Z,100347.59
2019-02-09T19:23:16.816Z,100357.00
2019-02-09T19:25:21.332Z,100350.77
2019-02-09T19:27:23.066Z,100349.13
2019-02-09T19:29:24.418Z,100342.92
2019-02-09T19:31:25.807Z,100362.87
2019-02-09T19:33:27.216Z,100367.17
2019-02-09T19:35:28.595Z,100346.70
2019-02-09T19:37:29.955Z,100357.67
2019-02-09T19:39:31.671Z,100358.58
2019-02-09T19:41:33.026Z,100364.78
2019-02-09T19:43:35.211Z,100358.80
2019-02-09T19:45:38.107Z,100374.84
2019-02-09T19:47:39.459Z,100377.39
2019-02-09T19:49:40.871Z,100381.14
2019-02-09T19:51:42.216Z,100393.30
2019-02-09T19:53:43.594Z,100393.69
2019-02-09T19:55:45.043Z,100393.75
2019-02-09T19:57:46.383Z,100405.51
2019-02-09T19:59:47.780Z,100406.06
2019-02-09T20:01:49.150Z,100400.09
2019-02-09T20:03:50.504Z,100399.23
2019-02-09T20:05:51.855Z,100406.30
2019-02-09T20:07:53.355Z,100406.08
2019-02-09T20:09:54.703Z,100399.17
2019-02-09T20:11:56.037Z,100404.91
2019-02-09T20:13:57.504Z,100406.28
2019-02-09T20:15:58.855Z,100404.83
2019-02-09T20:18:00.208Z,100412.33
2019-02-09T20:20:04.423Z,100411.73
2019-02-09T20:22:05.775Z,100412.30
2019-02-09T20:24:07.127Z,100411.54
2019-02-09T20:26:08.510Z,100412.28
2019-02-09T20:28:10.004Z,100414.39
2019-02-09T20:30:27.209Z,100412.58
2019-02-09T20:32:28.747Z,100410.83
2019-02-09T20:34:30.146Z,100417.77
2019-02-09T20:36:31.554Z,100413.77
2019-02-09T20:38:32.899Z,100421.71
2019-02-09T20:40:57.281Z,100416.52
2019-02-09T20:43:02.203Z,100425.08
2019-02-09T20:45:04.029Z,100420.29
2019-02-09T20:47:05.428Z,100425.38
2019-02-09T20:49:06.776Z,100431.41
2019-02-09T20:51:08.131Z,100426.84
2019-02-09T20:53:09.831Z,100423.94
2019-02-09T20:55:13.871Z,100434.16
2019-02-09T20:57:15.234Z,100441.05
2019-02-09T20:59:16.659Z,100437.77
2019-02-09T21:01:18.018Z,100435.26
2019-02-09T21:03:19.349Z,100444.03
2019-02-09T21:05:21.056Z,100440.48
2019-02-09T21:07:24.576Z,100439.40
2019-02-09T21:09:25.747Z,100438.84
2019-02-09T21:11:27.141Z,100439.72
2019-02-09T21:13:28.668Z,100437.94
2019-02-09T21:15:30.359Z,100440.20
2019-02-09T21:17:31.713Z,100439.36
2019-02-09T21:19:33.194Z,100450.83
2019-02-09T21:21:34.585Z,100448.73
2019-02-09T21:23:35.984Z,100447.47
2019-02-09T21:25:40.835Z,100443.39
2019-02-09T21:27:42.383Z,100445.82
2019-02-09T21:29:43.778Z,100452.52
2019-02-09T21:31:45.126Z,100457.39
2019-02-09T21:33:46.473Z,100458.78
2019-02-09T21:35:47.876Z,100454.06
2019-02-09T21:37:49.202Z,100454.17
2019-02-09T21:39:50.556Z,100453.59
2019-02-09T21:41:51.985Z,100451.82
2019-02-09T21:43:53.332Z,100466.88
2019-02-09T21:45:54.730Z,100469.53
2019-02-09T21:47:56.331Z,100472.58
2019-02-09T21:49:57.746Z,100471.90
2019-02-09T21:51:59.161Z,100472.89
2019-02-09T21:54:00.512Z,100475.73
2019-02-09T21:56:01.913Z,100475.77
2019-02-09T21:58:05.758Z,100477.22
2019-02-09T22:00:34.398Z,100473.91
2019-02-09T22:02:42.351Z,100480.05
2019-02-09T22:04:39.060Z,100484.11
2019-02-09T22:06:40.428Z,100476.50
2019-02-09T22:08:41.822Z,100476.53
2019-02-09T22:10:43.160Z,100477.68
2019-02-09T22:12:44.546Z,100481.48
2019-02-09T22:14:46.089Z,100473.68
2019-02-09T22:16:47.619Z,100469.92
2019-02-09T22:18:49.197Z,100472.81
2019-02-09T22:20:52.907Z,100475.52
2019-02-09T22:22:54.247Z,100474.13
2019-02-09T22:24:55.754Z,100464.81
2019-02-09T22:26:57.375Z,100465.45
2019-02-09T22:28:58.849Z,100465.20
2019-02-09T22:31:00.229Z,100467.87
2019-02-09T22:33:01.863Z,100473.45
2019-02-09T22:35:06.801Z,100468.86
2019-02-09T22:37:08.149Z,100475.22
2019-02-09T22:39:09.603Z,100478.38
2019-02-09T22:41:10.907Z,100471.65
2019-02-09T22:43:12.462Z,100477.89
2019-02-09T22:45:17.862Z,100472.85
2019-02-09T22:47:20.835Z,100481.41
2019-02-09T22:49:22.308Z,100484.11
2019-02-09T22:51:23.651Z,100482.39
2019-02-09T22:53:25.063Z,100482.33
2019-02-09T22:55:26.410Z,100481.33
2019-02-09T22:57:27.802Z,100490.55
2019-02-09T22:59:29.157Z,100482.30
2019-02-09T23:01:40.428Z,100487.80
2019-02-09T23:03:50.542Z,100491.80
2019-02-09T23:06:12.746Z,100491.97
2019-02-09T23:08:14.104Z,100486.61
2019-02-09T23:10:15.520Z,100488.61
2019-02-09T23:12:17.020Z,100483.63
2019-02-09T23:14:18.352Z,100487.64
2019-02-09T23:16:19.824Z,100486.01
2019-02-09T23:18:21.201Z,100494.30
2019-02-09T23:20:22.542Z,100491.78